createdAt,value
2022-09-29T00:09:52.478Z,55.49
2022-09-29T00:31:35.516Z,68.41
2022-09-29T00:53:21.741Z,53.92
2022-09-29T01:15:07.138Z,65.67
2022-09-29T01:37:00.933Z,56.00
2022-09-29T01:58:51.592Z,70.25
2022-09-29T02:20:34.803Z,56.86
2022-09-29T02:42:29.627Z,66.89
2022-09-29T03:04:12.606Z,54.33
2022-09-29T03:25:55.708Z,68.25
2022-09-29T03:47:38.751Z,53.56
2022-09-29T04:09:21.905Z,69.03
2022-09-29T04:31:05.659Z,51.46
2022-09-29T04:52:48.684Z,65.21
2022-09-29T05:14:32.482Z,50.88
2022-09-29T05:36:15.601Z,67.07
2022-09-29T05:57:58.605Z,49.83
2022-09-29T06:19:44.650Z,64.12
2022-09-29T06:41:29.443Z,49.82
2022-09-29T07:03:13.628Z,60.37
2022-09-29T07:24:56.616Z,56.83
2022-09-29T07:46:39.804Z,60.50
2022-09-29T08:08:23.166Z,54.78
2022-09-29T08:30:09.723Z,42.40
2022-09-29T08:52:03.837Z,29.40
2022-09-29T09:14:06.585Z,20.86
2022-09-29T09:35:58.723Z,17.22
2022-09-29T09:57:59.681Z,21.70
2022-09-29T10:20:01.014Z,23.62
2022-09-29T10:41:53.461Z,24.83
2022-09-29T11:03:39.450Z,29.37
2022-09-29T11:26:09.811Z,33.41
2022-09-29T11:48:26.098Z,35.84
2022-09-29T12:10:27.025Z,37.35
2022-09-29T12:32:19.340Z,37.42
2022-09-29T12:54:14.417Z,38.36
2022-09-29T13:16:10.688Z,39.31
2022-09-29T13:37:57.356Z,39.67
2022-09-29T13:59:44.157Z,40.94
2022-09-29T14:21:47.442Z,41.77
2022-09-29T14:43:39.637Z,42.67
2022-09-29T15:05:30.942Z,42.99
2022-09-29T15:27:16.244Z,44.04
2022-09-29T15:49:15.574Z,45.19
2022-09-29T16:11:00.877Z,46.34
2022-09-29T16:32:43.937Z,49.65
2022-09-29T16:54:30.144Z,52.47
2022-09-29T17:16:20.648Z,54.39
2022-09-29T17:38:06.990Z,57.40
2022-09-29T17:59:50.045Z,70.36
2022-09-29T18:21:33.508Z,52.19
2022-09-29T18:43:16.555Z,54.24
2022-09-29T19:04:59.648Z,67.91
2022-09-29T19:26:42.689Z,49.91
2022-09-29T19:48:25.790Z,53.17
2022-09-29T20:10:10.651Z,66.59
2022-09-29T20:31:54.375Z,50.09
2022-09-29T20:53:39.852Z,54.57
2022-09-29T21:15:23.667Z,70.70
2022-09-29T21:37:07.036Z,50.24
2022-09-29T21:58:51.873Z,54.40
2022-09-29T22:20:36.961Z,70.69
2022-09-29T22:42:20.177Z,50.70
2022-09-29T23:04:04.086Z,55.11
2022-09-29T23:25:50.678Z,70.40
2022-09-29T23:47:34.356Z,52.75
